createdAt,value
2022-11-19T00:00:46.053Z,6.20
2022-11-19T00:05:50.348Z,7.60
2022-11-19T00:10:53.312Z,8.53
2022-11-19T00:15:56.447Z,7.10
2022-11-19T00:21:07.460Z,7.37
2022-11-19T00:26:16.022Z,6.53
2022-11-19T00:31:19.425Z,6.20
2022-11-19T00:36:23.181Z,8.27
2022-11-19T00:41:26.115Z,7.97
2022-11-19T00:46:31.159Z,8.17
2022-11-19T00:51:35.283Z,7.80
2022-11-19T00:56:38.285Z,8.43
2022-11-19T01:01:41.396Z,7.77
2022-11-19T01:06:44.140Z,7.07
2022-11-19T01:11:46.963Z,6.53
2022-11-19T01:16:50.108Z,5.40
2022-11-19T01:21:53.288Z,5.97
2022-11-19T01:26:56.091Z,5.07
2022-11-19T01:31:59.422Z,3.60
2022-11-19T01:37:02.475Z,3.43
2022-11-19T01:42:05.634Z,4.23
2022-11-19T01:47:08.575Z,4.03
2022-11-19T01:52:11.450Z,3.90
2022-11-19T01:57:16.184Z,4.10
2022-11-19T02:02:20.110Z,4.67
2022-11-19T02:07:29.396Z,4.57
2022-11-19T02:12:44.772Z,5.00
2022-11-19T02:18:13.594Z,5.37
2022-11-19T02:23:35.403Z,5.20
2022-11-19T02:28:51.645Z,5.30
2022-11-19T02:33:56.341Z,5.17
2022-11-19T02:39:17.724Z,5.30
2022-11-19T02:44:49.908Z,5.73
2022-11-19T02:49:56.634Z,5.40
2022-11-19T02:54:59.654Z,6.73
2022-11-19T03:00:24.873Z,7.10
2022-11-19T03:05:32.230Z,8.20
2022-11-19T03:11:20.775Z,8.93
2022-11-19T03:16:43.182Z,10.13
2022-11-19T03:22:00.108Z,9.67
2022-11-19T03:27:10.296Z,9.47
2022-11-19T03:32:26.018Z,9.47
2022-11-19T03:37:31.089Z,9.13
2022-11-19T03:42:34.809Z,9.00
2022-11-19T03:47:39.189Z,7.13
2022-11-19T03:52:42.885Z,8.60
2022-11-19T03:57:46.077Z,8.07
2022-11-19T04:02:49.069Z,8.77
2022-11-19T04:07:52.082Z,8.40
2022-11-19T04:12:55.457Z,8.00
2022-11-19T04:17:58.532Z,8.00
2022-11-19T04:23:01.910Z,7.97
2022-11-19T04:28:05.040Z,8.80
2022-11-19T04:33:08.478Z,8.43
2022-11-19T04:38:11.652Z,9.23
2022-11-19T04:43:14.642Z,9.70
2022-11-19T04:48:17.468Z,10.07
2022-11-19T04:53:20.527Z,10.37
2022-11-19T04:58:23.551Z,10.10
2022-11-19T05:03:26.674Z,9.37
2022-11-19T05:08:29.699Z,9.23
2022-11-19T05:13:33.045Z,9.73
2022-11-19T05:18:36.103Z,8.50
2022-11-19T05:23:39.253Z,9.67
2022-11-19T05:28:42.166Z,8.13
2022-11-19T05:33:45.319Z,9.07
2022-11-19T05:38:48.448Z,9.87
2022-11-19T05:43:51.638Z,9.40
2022-11-19T05:48:54.587Z,11.60
2022-11-19T05:53:57.606Z,15.83
2022-11-19T05:59:00.779Z,13.47
2022-11-19T06:04:03.743Z,12.97
2022-11-19T06:09:06.900Z,14.07
2022-11-19T06:14:09.981Z,15.33
2022-11-19T06:19:13.071Z,14.23
2022-11-19T06:24:16.278Z,15.63
2022-11-19T06:29:20.100Z,15.63
2022-11-19T06:34:26.162Z,14.83
2022-11-19T06:39:29.057Z,14.87
2022-11-19T06:44:31.922Z,13.53
2022-11-19T06:49:34.808Z,13.30
2022-11-19T06:54:41.766Z,14.03
2022-11-19T06:59:46.352Z,13.73
2022-11-19T07:04:49.694Z,13.87
2022-11-19T07:09:52.722Z,14.90
2022-11-19T07:15:01.121Z,14.83
2022-11-19T07:20:08.065Z,14.97
2022-11-19T07:25:14.430Z,14.43
2022-11-19T07:30:18.035Z,15.47
2022-11-19T07:35:21.346Z,15.13
2022-11-19T07:40:24.254Z,14.50
2022-11-19T07:45:27.551Z,14.27
2022-11-19T07:50:30.605Z,15.63
2022-11-19T07:55:33.771Z,14.90
2022-11-19T08:00:37.407Z,15.83
2022-11-19T08:05:40.944Z,16.97
2022-11-19T08:10:44.202Z,15.80
2022-11-19T08:15:47.334Z,17.10
2022-11-19T08:20:50.171Z,16.57
2022-11-19T08:25:53.536Z,14.93
2022-11-19T08:30:56.718Z,16.50
2022-11-19T08:35:59.769Z,14.90
2022-11-19T08:41:21.480Z,17.83
2022-11-19T08:46:24.875Z,16.07
2022-11-19T08:51:27.959Z,16.00
2022-11-19T08:56:30.783Z,15.10
2022-11-19T09:01:34.017Z,20.33
2022-11-19T09:06:36.928Z,15.80
2022-11-19T09:11:42.604Z,15.23
2022-11-19T09:16:46.854Z,14.03
2022-11-19T09:21:49.960Z,16.67
2022-11-19T09:26:53.324Z,18.60
2022-11-19T09:31:57.007Z,21.53
2022-11-19T09:37:00.195Z,14.03
2022-11-19T09:42:16.840Z,21.10
2022-11-19T09:47:31.947Z,18.43
2022-11-19T09:52:39.468Z,22.63
2022-11-19T09:57:51.092Z,20.10
2022-11-19T10:02:54.301Z,19.37
2022-11-19T10:08:29.916Z,17.47
2022-11-19T10:13:32.817Z,17.63
2022-11-19T10:18:41.136Z,28.47
2022-11-19T10:24:00.969Z,17.13
2022-11-19T10:29:10.205Z,17.17
2022-11-19T10:34:29.980Z,16.00
2022-11-19T10:39:40.388Z,16.77
2022-11-19T10:44:49.747Z,23.57
2022-11-19T10:49:56.112Z,17.87
2022-11-19T10:55:15.155Z,17.37
2022-11-19T11:00:18.715Z,16.63
2022-11-19T11:05:21.739Z,18.83
2022-11-19T11:10:30.928Z,19.00
2022-11-19T11:15:34.464Z,18.13
2022-11-19T11:20:39.304Z,19.77
2022-11-19T11:25:51.877Z,17.43
2022-11-19T11:30:55.125Z,22.83
2022-11-19T11:36:01.438Z,23.00
2022-11-19T11:47:07.867Z,19.90
2022-11-19T11:52:39.819Z,20.23
2022-11-19T11:57:57.259Z,21.20
2022-11-19T12:03:11.365Z,22.27
2022-11-19T12:08:26.652Z,22.40
2022-11-19T12:13:55.965Z,22.00
2022-11-19T12:19:18.687Z,21.73
2022-11-19T12:24:26.873Z,19.47
2022-11-19T12:29:42.308Z,21.60
2022-11-19T12:34:51.733Z,19.40
2022-11-19T12:39:56.174Z,22.53
2022-11-19T12:45:36.527Z,20.80
2022-11-19T12:50:48.294Z,23.33
2022-11-19T12:56:17.702Z,23.30
2022-11-19T13:01:25.254Z,23.27
2022-11-19T13:06:48.261Z,21.73
2022-11-19T13:11:59.798Z,21.40
2022-11-19T13:17:05.001Z,21.53
2022-11-19T13:22:19.391Z,19.60
2022-11-19T13:27:25.502Z,20.13
2022-11-19T13:32:57.350Z,20.57
2022-11-19T13:38:19.021Z,25.70
2022-11-19T13:43:40.944Z,25.23
2022-11-19T13:49:16.274Z,24.00
2022-11-19T13:54:23.313Z,25.70
2022-11-19T13:59:39.486Z,27.43
2022-11-19T14:04:48.419Z,26.03
2022-11-19T14:10:08.266Z,25.60
2022-11-19T14:15:48.285Z,23.33
2022-11-19T14:21:09.727Z,23.20
2022-11-19T14:26:41.908Z,26.10
2022-11-19T14:32:00.515Z,24.70
2022-11-19T14:37:11.210Z,24.97
2022-11-19T14:42:17.817Z,28.50
2022-11-19T14:47:27.299Z,24.50
2022-11-19T14:52:34.653Z,25.10
2022-11-19T14:57:39.905Z,24.27
2022-11-19T15:02:46.766Z,23.27
2022-11-19T15:07:56.237Z,28.20
2022-11-19T15:13:13.322Z,26.07
2022-11-19T15:18:23.294Z,26.30
2022-11-19T15:23:42.378Z,26.53
2022-11-19T15:29:07.273Z,26.57
2022-11-19T15:34:22.838Z,25.27
2022-11-19T15:39:32.089Z,27.50
2022-11-19T15:44:44.115Z,28.03
2022-11-19T15:49:47.712Z,26.23
2022-11-19T15:54:50.827Z,24.90
2022-11-19T16:00:00.024Z,22.90
2022-11-19T16:05:03.169Z,24.77
2022-11-19T16:10:06.862Z,23.07
2022-11-19T16:15:43.230Z,24.80
2022-11-19T16:20:50.485Z,24.93
2022-11-19T16:25:53.773Z,28.90
2022-11-19T16:31:06.358Z,21.87
2022-11-19T16:36:15.156Z,29.60
2022-11-19T16:41:39.040Z,25.33
2022-11-19T16:46:42.045Z,27.33
2022-11-19T16:51:54.516Z,25.93
2022-11-19T16:56:57.726Z,24.37
2022-11-19T17:02:00.863Z,24.63
2022-11-19T17:07:04.103Z,23.50
2022-11-19T17:12:22.737Z,21.60
2022-11-19T17:17:40.769Z,22.30
2022-11-19T17:22:44.174Z,19.77
2022-11-19T17:27:52.632Z,20.90
2022-11-19T17:32:58.224Z,18.77
2022-11-19T17:38:12.172Z,20.17
2022-11-19T17:43:35.028Z,18.47
2022-11-19T17:48:40.774Z,17.63
2022-11-19T17:53:43.809Z,16.47
2022-11-19T17:58:47.922Z,18.20
2022-11-19T18:03:50.992Z,16.13
2022-11-19T18:08:53.975Z,17.90
2022-11-19T18:13:59.957Z,17.27
2022-11-19T18:19:03.118Z,18.90
2022-11-19T18:24:06.469Z,17.07
2022-11-19T18:29:09.752Z,17.80
2022-11-19T18:34:23.119Z,19.87
2022-11-19T18:39:26.729Z,16.87
2022-11-19T18:44:35.940Z,15.80
2022-11-19T18:49:39.294Z,16.03
2022-11-19T18:54:44.554Z,14.87
2022-11-19T18:59:47.861Z,16.50
2022-11-19T19:04:51.371Z,16.07
2022-11-19T19:09:54.301Z,17.20
2022-11-19T19:14:57.789Z,15.33
2022-11-19T19:20:00.929Z,17.67
2022-11-19T19:25:05.454Z,16.43
2022-11-19T19:30:09.993Z,28.93
2022-11-19T19:35:13.240Z,14.97
2022-11-19T19:40:16.301Z,14.83
2022-11-19T19:45:19.772Z,14.40
2022-11-19T19:50:22.971Z,13.67
2022-11-19T19:55:26.861Z,14.47
2022-11-19T20:00:30.241Z,23.87
2022-11-19T20:05:33.089Z,13.90
2022-11-19T20:10:35.957Z,14.47
2022-11-19T20:15:40.310Z,14.70
2022-11-19T20:20:43.208Z,15.73
2022-11-19T20:25:46.131Z,12.70
2022-11-19T20:30:49.083Z,14.43
2022-11-19T20:35:52.772Z,14.20
2022-11-19T20:41:04.251Z,14.40
2022-11-19T20:46:09.516Z,14.67
2022-11-19T20:51:13.609Z,18.07
2022-11-19T20:56:16.576Z,14.30
2022-11-19T21:01:19.851Z,15.20
2022-11-19T21:06:23.169Z,15.30
2022-11-19T21:11:26.223Z,15.53
2022-11-19T21:16:29.342Z,14.17
2022-11-19T21:21:32.274Z,16.33
2022-11-19T21:26:35.327Z,17.30
2022-11-19T21:31:39.023Z,16.77
2022-11-19T21:36:43.736Z,16.63
2022-11-19T21:41:47.061Z,17.70
2022-11-19T21:46:50.310Z,17.97
2022-11-19T21:51:53.375Z,23.07
2022-11-19T21:56:56.910Z,24.13
2022-11-19T22:02:00.055Z,20.27
2022-11-19T22:07:03.333Z,20.00
2022-11-19T22:12:06.347Z,20.00
2022-11-19T22:17:09.440Z,20.93
2022-11-19T22:22:12.667Z,20.93
2022-11-19T22:27:15.596Z,21.13
2022-11-19T22:32:19.676Z,22.67
2022-11-19T22:37:22.430Z,19.33
2022-11-19T22:42:25.389Z,21.70
2022-11-19T22:47:28.530Z,20.93
2022-11-19T22:52:31.770Z,21.10
2022-11-19T22:57:34.913Z,21.37
2022-11-19T23:02:38.213Z,20.23
2022-11-19T23:07:41.057Z,22.20
2022-11-19T23:13:03.411Z,21.10
2022-11-19T23:18:06.511Z,21.43
2022-11-19T23:23:09.246Z,20.50
2022-11-19T23:28:13.642Z,22.13
2022-11-19T23:33:16.813Z,22.23
2022-11-19T23:38:19.767Z,21.70
2022-11-19T23:43:22.735Z,22.10
2022-11-19T23:48:27.939Z,22.87
2022-11-19T23:53:30.997Z,22.60
2022-11-19T23:58:34.404Z,22.30
